Список аэропортов
Фактическая погода:

6:00
Температура: +17.8°C
Ветер: штиль
Видимость: 10 км
Давление: 756 мм рт. ст.
1008.5 гПа (+0.4)

Облачность: ясно
Осадки за 12 часов: 0 мм
Время (МСК)Темп. СВетерВлажностьДавлениеОблачностьОсадки
03:00+12С, 1 м/с91%1025 гПамалооблачно
04:00+11С, 1 м/с93%1025 гПас прояснениями
05:00+11С, 1 м/с93%1025 гПамалооблачно
06:00+13СЗ, 1 м/с85%1025 гПаясно
07:00+16Штиль 75%1025 гПаясно
08:00+19Штиль 61%1025 гПаясно
09:00+23Штиль 49%1025 гПаясно
10:00+25В, 1 м/с41%1024 гПаясно
11:00+27В, 2 м/с39%1024 гПаясно
12:00+28В, 1 м/с37%1024 гПаясно
13:00+28В, 1 м/с35%1023 гПаясно
14:00+29В, 1 м/с34%1023 гПаясно
15:00+29СВ, 2 м/с34%1022 гПаясно
16:00+29СВ, 2 м/с35%1021 гПаясно
17:00+28СВ, 2 м/с38%1021 гПаясно
18:00+26СВ, 1 м/с47%1021 гПаясно
19:00+23С, 1 м/с61%1021 гПаясно
20:00+22С, 1 м/с69%1021 гПаясно
21:00+20С, 1 м/с76%1021 гПаясно
22:00+19С, 1 м/с84%1021 гПаясно
23:00+18С, 1 м/с88%1021 гПаясно
22 августа
00:00+17С, 1 м/с92%1021 гПаясно
01:00+16С, 1 м/с95%1021 гПаясно
02:00+16С, 2 м/с96%1021 гПаясно
03:00+15С, 1 м/с97%1021 гПамалооблачно
04:00+15С, 1 м/с98%1021 гПамалооблачно
05:00+14С, 1 м/с99%1022 гПас прояснениями
06:00+15С, 1 м/с95%1022 гПамалооблачно
07:00+18СВ, 1 м/с86%1022 гПаясно
08:00+22В, 2 м/с72%1022 гПаясно
09:00+25В, 3 м/с58%1021 гПамалооблачно
10:00+27В, 4 м/с47%1021 гПаясно
11:00+28В, 4 м/с43%1021 гПаясно
12:00+28В, 4 м/с40%1020 гПаясно
13:00+29В, 4 м/с38%1020 гПаясно
14:00+29ЮВ, 4 м/с37%1019 гПаясно
15:00+30ЮВ, 4 м/с37%1019 гПамалооблачно
16:00+29ЮВ, 4 м/с36%1018 гПаясно
17:00+29ЮВ, 3 м/с36%1018 гПаясно
18:00+27ЮВ, 2 м/с44%1018 гПаясно
19:00+24В, 2 м/с57%1018 гПаясно
20:00+22В, 2 м/с66%1019 гПаясно
21:00+20В, 2 м/с71%1019 гПаясно
22:00+19В, 2 м/с74%1019 гПаясно
23:00+18В, 2 м/с68%1019 гПаясно
23 августа
00:00+18В, 2 м/с67%1019 гПаясно
01:00+17ЮВ, 2 м/с66%1020 гПаясно
02:00+16В, 2 м/с70%1020 гПаясно
03:00+15СВ, 1 м/с77%1020 гПаясно